createdAt,value
2019-05-02T00:01:19.268Z,35.60
2019-05-02T00:03:48.519Z,39.40
2019-05-02T00:06:18.120Z,31.97
2019-05-02T00:08:47.898Z,40.73
2019-05-02T00:11:17.367Z,35.98
2019-05-02T00:13:47.583Z,27.52
2019-05-02T00:16:16.857Z,45.05
2019-05-02T00:18:46.448Z,46.98
2019-05-02T00:21:16.061Z,41.58
2019-05-02T00:23:45.288Z,32.33
2019-05-02T00:26:14.752Z,40.33
2019-05-02T00:28:47.945Z,39.65
2019-05-02T00:31:17.634Z,42.45
2019-05-02T00:33:46.830Z,37.63
2019-05-02T00:36:16.003Z,34.55
2019-05-02T00:38:45.164Z,43.75
2019-05-02T00:41:14.423Z,36.85
2019-05-02T00:43:43.650Z,57.85
2019-05-02T00:46:12.992Z,39.05
2019-05-02T00:48:47.053Z,29.85
2019-05-02T00:51:16.275Z,31.37
2019-05-02T00:53:48.451Z,35.55
2019-05-02T00:56:16.433Z,40.95
2019-05-02T00:58:45.583Z,31.95
2019-05-02T01:01:33.883Z,29.40
2019-05-02T01:04:08.715Z,29.50
2019-05-02T01:06:37.906Z,32.88
2019-05-02T01:09:11.174Z,44.48
2019-05-02T01:11:39.491Z,38.98
2019-05-02T01:14:08.743Z,36.95
2019-05-02T01:16:37.961Z,30.68
2019-05-02T01:19:07.114Z,46.58
2019-05-02T01:21:38.848Z,26.80
2019-05-02T01:24:07.234Z,21.45
2019-05-02T01:26:40.150Z,36.58
2019-05-02T01:29:14.890Z,36.25
2019-05-02T01:32:15.171Z,35.17
2019-05-02T01:35:06.125Z,37.23
2019-05-02T01:37:54.893Z,27.42
2019-05-02T01:40:24.085Z,40.43
2019-05-02T01:42:56.856Z,32.45
2019-05-02T01:45:26.075Z,37.50
2019-05-02T01:47:55.223Z,35.05
2019-05-02T01:50:24.475Z,25.88
2019-05-02T01:52:58.264Z,44.55
2019-05-02T01:55:24.555Z,27.58
2019-05-02T01:57:53.733Z,49.10
2019-05-02T02:00:22.898Z,28.32
2019-05-02T02:02:52.044Z,44.45
2019-05-02T02:05:21.238Z,41.25
2019-05-02T02:07:50.760Z,42.88
2019-05-02T02:10:21.311Z,48.23
2019-05-02T02:13:03.610Z,21.23
2019-05-02T02:15:25.198Z,26.80
2019-05-02T02:17:52.725Z,37.13
2019-05-02T02:20:23.721Z,25.85
2019-05-02T02:23:01.310Z,25.43
2019-05-02T02:25:44.037Z,36.68
2019-05-02T02:28:13.226Z,33.18
2019-05-02T02:30:42.437Z,18.17
2019-05-02T02:33:11.636Z,30.12
2019-05-02T02:35:49.430Z,48.17
2019-05-02T02:38:11.810Z,40.73
2019-05-02T02:40:40.992Z,24.95
2019-05-02T02:43:30.018Z,32.73
2019-05-02T02:46:02.012Z,43.75
2019-05-02T02:48:33.854Z,22.77
2019-05-02T02:51:03.176Z,27.52
2019-05-02T02:53:32.706Z,22.40
2019-05-02T02:56:04.139Z,36.20
2019-05-02T02:58:44.653Z,38.50
2019-05-02T03:01:05.448Z,29.45
2019-05-02T03:03:35.772Z,33.13
2019-05-02T03:06:07.806Z,36.40
2019-05-02T03:08:44.661Z,32.67
2019-05-02T03:11:07.628Z,29.30
2019-05-02T03:13:53.383Z,35.03
2019-05-02T03:16:24.354Z,36.15
2019-05-02T03:18:53.525Z,22.60
2019-05-02T03:21:22.818Z,40.00
2019-05-02T03:24:01.356Z,43.73
2019-05-02T03:26:23.020Z,21.87
2019-05-02T03:28:58.227Z,47.60
2019-05-02T03:31:29.078Z,25.75
2019-05-02T03:33:59.729Z,21.10
2019-05-02T03:36:30.104Z,30.82
2019-05-02T03:38:56.345Z,37.05
2019-05-02T03:41:25.829Z,31.30
2019-05-02T03:44:09.689Z,32.93
2019-05-02T03:46:25.949Z,49.60
2019-05-02T03:49:05.414Z,38.02
2019-05-02T03:51:26.007Z,40.00
2019-05-02T03:54:06.355Z,41.40
2019-05-02T03:56:26.163Z,50.15
2019-05-02T03:58:58.131Z,51.73
2019-05-02T04:01:27.322Z,49.48
2019-05-02T04:03:57.332Z,44.83
2019-05-02T04:06:26.825Z,66.65
2019-05-02T04:08:59.839Z,80.87
2019-05-02T04:11:37.861Z,49.83
2019-05-02T04:13:58.499Z,50.83
2019-05-02T04:16:30.236Z,56.30
2019-05-02T04:19:04.954Z,56.05
2019-05-02T04:21:35.735Z,45.28
2019-05-02T04:24:13.677Z,72.03
2019-05-02T04:26:37.302Z,54.18
2019-05-02T04:29:06.456Z,61.90
2019-05-02T04:31:35.691Z,58.15
2019-05-02T04:34:14.111Z,62.08
2019-05-02T04:36:35.822Z,59.10
2019-05-02T04:39:15.053Z,53.83
2019-05-02T04:41:39.173Z,48.73
2019-05-02T04:44:09.132Z,49.45
2019-05-02T04:46:38.851Z,64.75
2019-05-02T04:49:09.151Z,61.65
2019-05-02T04:51:38.752Z,48.13
2019-05-02T04:54:09.262Z,52.25
2019-05-02T04:56:48.258Z,62.53
2019-05-02T04:59:17.874Z,49.42
2019-05-02T05:01:49.205Z,56.60
2019-05-02T05:04:11.706Z,55.90
2019-05-02T05:06:46.651Z,52.10
2019-05-02T05:09:14.844Z,48.05
2019-05-02T05:11:42.678Z,56.55
2019-05-02T05:14:11.827Z,68.45
2019-05-02T05:16:45.501Z,56.08
2019-05-02T05:19:11.862Z,63.68
2019-05-02T05:21:41.071Z,51.02
2019-05-02T05:24:32.716Z,47.90
2019-05-02T05:27:00.296Z,75.57
2019-05-02T05:29:29.540Z,63.68
2019-05-02T05:32:05.247Z,62.95
2019-05-02T05:34:32.617Z,74.90
2019-05-02T05:37:03.498Z,77.35
2019-05-02T05:39:31.466Z,66.07
2019-05-02T05:42:00.635Z,65.83
2019-05-02T05:44:32.620Z,69.35
2019-05-02T05:47:00.796Z,56.28
2019-05-02T05:49:30.009Z,66.97
2019-05-02T05:52:02.224Z,68.57
2019-05-02T05:54:32.947Z,65.95
2019-05-02T05:57:01.111Z,83.62
2019-05-02T05:59:32.030Z,74.62
2019-05-02T06:02:05.377Z,75.65
2019-05-02T06:04:33.346Z,59.25
2019-05-02T06:07:04.066Z,57.33
2019-05-02T06:09:33.290Z,89.65
2019-05-02T06:12:02.443Z,59.60
2019-05-02T06:14:34.257Z,69.20
2019-05-02T06:17:02.567Z,74.03
2019-05-02T06:19:31.729Z,63.48
2019-05-02T06:22:00.935Z,66.75
2019-05-02T06:24:30.134Z,66.07
2019-05-02T06:26:59.361Z,79.22
2019-05-02T06:29:28.631Z,62.00
2019-05-02T06:32:02.428Z,55.95
2019-05-02T06:34:31.599Z,62.00
2019-05-02T06:37:01.301Z,75.52
2019-05-02T06:39:31.939Z,85.45
2019-05-02T06:42:03.109Z,104.78
2019-05-02T06:44:32.348Z,62.67
2019-05-02T06:47:04.267Z,66.55
2019-05-02T06:49:32.821Z,61.45
2019-05-02T06:52:02.059Z,60.60
2019-05-02T06:54:31.241Z,68.47
2019-05-02T06:57:00.456Z,55.17
2019-05-02T06:59:29.694Z,64.67
2019-05-02T07:01:59.186Z,58.10
2019-05-02T07:04:28.498Z,72.08
2019-05-02T07:06:59.233Z,51.60
2019-05-02T07:09:39.957Z,41.60
2019-05-02T07:12:01.508Z,60.25
2019-05-02T07:14:30.432Z,40.20
2019-05-02T07:17:26.513Z,53.50
2019-05-02T07:19:58.862Z,44.18
2019-05-02T07:22:28.307Z,50.37
2019-05-02T07:24:57.566Z,38.25
2019-05-02T07:27:28.301Z,41.65
2019-05-02T07:29:59.397Z,52.15
2019-05-02T07:32:28.783Z,44.67
2019-05-02T07:34:57.958Z,51.10
2019-05-02T07:37:27.237Z,47.23
2019-05-02T07:39:56.491Z,43.92
2019-05-02T07:42:25.697Z,52.53
2019-05-02T07:44:54.901Z,54.00
2019-05-02T07:47:24.048Z,41.02
2019-05-02T07:49:53.187Z,50.38
2019-05-02T07:52:22.393Z,55.85
2019-05-02T07:54:51.539Z,49.30
2019-05-02T07:57:20.681Z,37.85
2019-05-02T07:59:50.050Z,40.52
2019-05-02T08:02:20.258Z,55.83
2019-05-02T08:04:50.187Z,48.38
2019-05-02T08:07:21.215Z,63.10
2019-05-02T08:09:50.263Z,55.57
2019-05-02T08:12:19.492Z,47.93
2019-05-02T08:14:48.760Z,44.60
2019-05-02T08:17:19.298Z,50.70
2019-05-02T08:19:48.739Z,41.93
2019-05-02T08:22:17.924Z,51.87
2019-05-02T08:24:47.170Z,49.73
2019-05-02T08:27:41.370Z,58.90
2019-05-02T08:30:18.334Z,41.83
2019-05-02T08:32:47.606Z,39.10
2019-05-02T08:35:16.821Z,37.80
2019-05-02T08:37:45.987Z,41.03
2019-05-02T08:40:15.594Z,38.50
2019-05-02T08:42:44.805Z,47.10
2019-05-02T08:45:14.078Z,39.30
2019-05-02T08:47:43.253Z,34.37
2019-05-02T08:50:13.080Z,39.43
2019-05-02T08:52:44.073Z,38.03
2019-05-02T08:55:13.230Z,41.37
2019-05-02T08:57:42.376Z,47.50
2019-05-02T09:00:13.419Z,43.73
2019-05-02T09:02:42.877Z,48.30
2019-05-02T09:05:12.522Z,51.30
2019-05-02T09:07:42.999Z,39.80
2019-05-02T09:10:13.151Z,40.00
2019-05-02T09:12:45.460Z,49.53
2019-05-02T09:15:13.850Z,46.80
2019-05-02T09:17:51.757Z,48.90
2019-05-02T09:20:18.722Z,58.30
2019-05-02T09:22:46.537Z,40.60
2019-05-02T09:25:16.817Z,36.97
2019-05-02T09:27:45.966Z,32.87
2019-05-02T09:30:17.188Z,53.77
2019-05-02T09:32:46.023Z,50.13
2019-05-02T09:35:15.170Z,43.73
2019-05-02T09:37:44.371Z,35.57
2019-05-02T09:40:16.724Z,41.43
2019-05-02T09:42:47.597Z,37.67
2019-05-02T09:45:22.717Z,46.33
2019-05-02T09:47:59.693Z,38.53
2019-05-02T09:50:29.485Z,41.93
2019-05-02T09:52:54.158Z,38.00
2019-05-02T09:55:23.400Z,39.30
2019-05-02T09:57:52.555Z,44.73
2019-05-02T10:00:44.323Z,49.97
2019-05-02T10:03:14.243Z,33.67
2019-05-02T10:05:43.475Z,41.13
2019-05-02T10:08:14.024Z,36.97
2019-05-02T10:10:45.860Z,45.63
2019-05-02T10:13:14.538Z,43.93
2019-05-02T10:15:43.908Z,42.00
2019-05-02T10:18:14.549Z,46.37
2019-05-02T10:20:44.388Z,32.40
2019-05-02T10:23:19.398Z,35.90
2019-05-02T10:25:46.923Z,44.40
2019-05-02T10:28:16.347Z,28.17
2019-05-02T10:30:47.367Z,35.00
2019-05-02T10:33:16.799Z,31.17
2019-05-02T10:35:47.649Z,29.87
2019-05-02T10:38:19.444Z,29.43
2019-05-02T10:40:48.422Z,28.23
2019-05-02T10:43:18.591Z,31.10
2019-05-02T10:45:52.876Z,38.23
2019-05-02T10:48:28.030Z,27.53
2019-05-02T10:50:53.962Z,31.97
2019-05-02T10:53:23.203Z,28.13
2019-05-02T10:55:52.544Z,39.10
2019-05-02T10:58:23.955Z,34.57
2019-05-02T11:00:53.094Z,32.20
2019-05-02T11:03:47.535Z,32.13
2019-05-02T11:06:17.226Z,29.90
2019-05-02T11:08:46.453Z,31.90
2019-05-02T11:11:15.906Z,30.63
2019-05-02T11:14:01.031Z,24.70
2019-05-02T11:16:32.454Z,34.27
2019-05-02T11:19:04.595Z,28.60
2019-05-02T11:21:33.872Z,29.40
2019-05-02T11:24:03.026Z,38.53
2019-05-02T11:26:32.592Z,32.93
2019-05-02T11:29:02.928Z,26.67
2019-05-02T11:31:32.782Z,41.20
2019-05-02T11:34:02.083Z,33.60
2019-05-02T11:36:32.891Z,33.03
2019-05-02T11:39:14.545Z,33.43
2019-05-02T11:41:33.295Z,36.57
2019-05-02T11:44:02.952Z,40.53
2019-05-02T11:55:58.319Z,43.10
2019-05-02T11:58:25.689Z,52.30
2019-05-02T12:00:54.951Z,48.77
2019-05-02T12:03:42.305Z,67.90
2019-05-02T12:06:18.986Z,46.87
2019-05-02T12:08:44.987Z,51.37
2019-05-02T12:11:17.588Z,49.00
2019-05-02T12:13:47.409Z,39.77
2019-05-02T12:16:16.912Z,56.23
2019-05-02T12:18:46.490Z,63.87
2019-05-02T12:21:16.950Z,54.20
2019-05-02T12:23:46.114Z,59.50
2019-05-02T12:26:15.458Z,62.03
2019-05-02T12:28:44.614Z,47.10
2019-05-02T12:31:27.883Z,67.87
2019-05-02T12:33:58.410Z,51.57
2019-05-02T12:36:27.639Z,63.60
2019-05-02T12:38:56.825Z,53.33
2019-05-02T12:41:26.065Z,51.03
2019-05-02T12:43:55.214Z,51.07
2019-05-02T12:46:24.480Z,43.23
2019-05-02T12:48:53.662Z,54.03
2019-05-02T12:51:24.933Z,69.93
2019-05-02T12:53:54.127Z,39.47
2019-05-02T12:56:23.288Z,43.07
2019-05-02T12:58:53.107Z,50.93
2019-05-02T13:01:22.722Z,66.10
2019-05-02T13:04:00.314Z,47.93
2019-05-02T13:06:29.511Z,32.50
2019-05-02T13:08:58.739Z,43.63
2019-05-02T13:11:45.639Z,50.77
2019-05-02T13:14:19.118Z,51.30
2019-05-02T13:16:45.705Z,42.37
2019-05-02T13:19:15.499Z,37.90
2019-05-02T13:22:06.444Z,40.77
2019-05-02T13:24:39.029Z,38.80
2019-05-02T13:27:12.620Z,44.00
2019-05-02T13:29:42.863Z,37.77
2019-05-02T13:32:25.411Z,37.70
2019-05-02T13:35:02.103Z,34.43
2019-05-02T13:37:31.894Z,25.33
2019-05-02T13:40:26.815Z,34.70
2019-05-02T13:42:56.145Z,16.00
2019-05-02T13:45:50.136Z,24.52
2019-05-02T13:48:19.405Z,38.05
2019-05-02T13:50:48.630Z,26.02
2019-05-02T13:53:18.034Z,28.15
2019-05-02T13:55:53.624Z,16.75
2019-05-02T13:58:28.970Z,23.53
2019-05-02T14:00:54.362Z,19.87
2019-05-02T14:03:23.828Z,29.85
2019-05-02T14:05:53.877Z,26.70
2019-05-02T14:08:37.054Z,22.85
2019-05-02T14:11:24.315Z,25.87
2019-05-02T14:13:53.581Z,25.92
2019-05-02T14:16:22.887Z,26.40
2019-05-02T14:18:52.997Z,27.37
2019-05-02T14:21:22.871Z,34.08
2019-05-02T14:23:52.040Z,43.17
2019-05-02T14:26:28.199Z,32.13
2019-05-02T14:28:53.287Z,34.90
2019-05-02T14:31:22.719Z,23.27
2019-05-02T14:34:09.656Z,26.03
2019-05-02T14:36:39.259Z,27.40
2019-05-02T14:39:11.823Z,27.60
2019-05-02T14:41:44.019Z,32.73
2019-05-02T14:44:12.056Z,19.33
2019-05-02T14:46:42.524Z,32.97
2019-05-02T14:49:12.157Z,30.17
2019-05-02T14:51:41.825Z,20.60
2019-05-02T14:54:12.090Z,20.90
2019-05-02T14:56:52.383Z,26.50
2019-05-02T14:59:23.186Z,19.60
2019-05-02T15:01:57.778Z,24.47
2019-05-02T15:04:26.923Z,28.57
2019-05-02T15:06:56.088Z,20.15
2019-05-02T15:09:26.943Z,23.70
2019-05-02T15:11:59.075Z,19.23
2019-05-02T15:14:32.663Z,28.07
2019-05-02T15:17:02.607Z,18.37
2019-05-02T15:19:33.013Z,24.10
2019-05-02T15:22:02.989Z,23.98
2019-05-02T15:24:36.189Z,21.93
2019-05-02T15:27:11.488Z,20.83
2019-05-02T15:29:34.405Z,19.42
2019-05-02T15:32:22.293Z,16.57
2019-05-02T15:35:12.822Z,18.37
2019-05-02T15:37:41.977Z,17.32
2019-05-02T15:40:43.446Z,16.27
2019-05-02T15:42:52.126Z,17.27
2019-05-02T15:45:23.787Z,17.50
2019-05-02T15:47:52.856Z,17.00
2019-05-02T15:50:25.583Z,15.20
2019-05-02T15:53:03.291Z,19.60
2019-05-02T15:55:33.896Z,16.45
2019-05-02T15:58:02.273Z,21.00
2019-05-02T16:00:35.082Z,18.93
2019-05-02T16:03:04.677Z,10.23
2019-05-02T16:05:36.518Z,16.13
2019-05-02T16:08:08.546Z,15.90
2019-05-02T16:10:38.550Z,16.03
2019-05-02T16:13:08.576Z,17.30
2019-05-02T16:15:38.835Z,15.10
2019-05-02T16:18:08.075Z,16.73
2019-05-02T16:21:07.032Z,17.93
2019-05-02T16:23:32.945Z,22.53
2019-05-02T16:26:02.132Z,16.87
2019-05-02T16:28:32.441Z,24.03
2019-05-02T16:31:03.976Z,17.33
2019-05-02T16:33:33.193Z,15.30
2019-05-02T16:36:02.693Z,14.10
2019-05-02T16:38:34.885Z,13.05
2019-05-02T16:41:09.977Z,19.60
2019-05-02T16:43:34.009Z,17.63
2019-05-02T16:46:06.727Z,23.80
2019-05-02T16:48:37.598Z,17.80
2019-05-02T16:51:08.193Z,25.50
2019-05-02T16:53:36.176Z,14.10
2019-05-02T16:56:07.138Z,22.27
2019-05-02T16:58:37.990Z,24.20
2019-05-02T17:01:07.657Z,18.87
2019-05-02T17:03:36.916Z,23.32
2019-05-02T17:06:06.137Z,21.27
2019-05-02T17:08:58.484Z,26.63
2019-05-02T17:11:35.796Z,18.70
2019-05-02T17:14:07.085Z,19.48
2019-05-02T17:16:35.519Z,25.03
2019-05-02T17:19:04.914Z,19.03
2019-05-02T17:21:52.423Z,29.03
2019-05-02T17:24:05.386Z,29.80
2019-05-02T17:26:34.628Z,24.03
2019-05-02T17:29:04.620Z,18.60
2019-05-02T17:31:34.492Z,25.17
2019-05-02T17:34:07.206Z,23.70
2019-05-02T17:36:36.987Z,26.07
2019-05-02T17:39:09.620Z,28.60
2019-05-02T17:41:42.313Z,26.03
2019-05-02T17:44:12.936Z,21.20
2019-05-02T17:46:42.870Z,32.33
2019-05-02T17:49:14.102Z,38.03
2019-05-02T17:52:05.793Z,26.82
2019-05-02T17:54:34.201Z,32.75
2019-05-02T17:57:04.110Z,29.40
2019-05-02T17:59:37.551Z,22.48
2019-05-02T18:02:12.242Z,32.80
2019-05-02T18:04:46.575Z,33.95
2019-05-02T18:07:14.498Z,30.97
2019-05-02T18:09:44.447Z,27.53
2019-05-02T18:12:16.198Z,39.80
2019-05-02T18:14:46.277Z,26.30
2019-05-02T18:17:15.687Z,31.87
2019-05-02T18:19:45.451Z,31.80
2019-05-02T18:22:23.480Z,34.95
2019-05-02T18:24:47.214Z,29.18
2019-05-02T18:27:17.860Z,26.10
2019-05-02T18:29:47.144Z,33.27
2019-05-02T18:32:22.777Z,26.57
2019-05-02T18:34:52.068Z,31.77
2019-05-02T18:37:21.912Z,38.07
2019-05-02T18:39:55.745Z,31.40
2019-05-02T18:42:25.508Z,44.07
2019-05-02T18:44:55.774Z,44.80
2019-05-02T18:47:25.849Z,39.10
2019-05-02T18:50:04.293Z,41.35
2019-05-02T18:52:38.055Z,62.40
2019-05-02T18:55:01.872Z,38.20
2019-05-02T18:57:32.205Z,51.57
2019-05-02T19:00:02.636Z,44.33
2019-05-02T19:02:35.610Z,44.63
2019-05-02T19:05:06.088Z,31.23
2019-05-02T19:07:35.879Z,30.35
2019-05-02T19:10:07.440Z,38.37
2019-05-02T19:12:37.736Z,46.53
2019-05-02T19:15:10.865Z,41.50
2019-05-02T19:17:43.113Z,43.02
2019-05-02T19:20:35.262Z,50.70
2019-05-02T19:23:05.440Z,36.77
2019-05-02T19:25:35.632Z,37.75
2019-05-02T19:28:12.203Z,40.43
2019-05-02T19:30:42.438Z,59.18
2019-05-02T19:33:12.138Z,51.47
2019-05-02T19:35:45.326Z,41.40
2019-05-02T19:38:17.114Z,47.58
2019-05-02T19:40:43.710Z,46.37
2019-05-02T19:43:14.793Z,37.50
2019-05-02T19:45:45.750Z,46.75
2019-05-02T19:48:14.835Z,47.08
2019-05-02T19:50:44.336Z,26.15
2019-05-02T19:53:17.973Z,32.28
2019-05-02T19:55:44.513Z,30.82
2019-05-02T19:58:13.782Z,33.25
2019-05-02T20:00:46.154Z,29.00
2019-05-02T20:03:21.593Z,19.65
2019-05-02T20:05:48.209Z,21.75
2019-05-02T20:08:21.315Z,22.02
2019-05-02T20:10:49.240Z,23.20
2019-05-02T20:13:20.336Z,22.10
2019-05-02T20:15:57.086Z,42.23
2019-05-02T20:18:28.074Z,30.15
2019-05-02T20:21:25.986Z,24.02
2019-05-02T20:23:50.594Z,25.05
2019-05-02T20:26:21.971Z,17.27
2019-05-02T20:28:52.604Z,18.00
2019-05-02T20:31:21.818Z,21.90
2019-05-02T20:33:52.062Z,29.42
2019-05-02T20:36:22.754Z,17.50
2019-05-02T20:38:52.750Z,23.12
2019-05-02T20:41:22.512Z,12.63
2019-05-02T20:43:52.217Z,22.07
2019-05-02T20:46:21.971Z,18.40
2019-05-02T20:48:52.610Z,11.50
2019-05-02T20:51:22.719Z,18.82
2019-05-02T20:53:52.557Z,15.10
2019-05-02T20:56:23.060Z,11.68
2019-05-02T20:58:52.773Z,12.05
2019-05-02T21:01:22.309Z,18.12
2019-05-02T21:03:52.117Z,9.20
2019-05-02T21:06:40.859Z,16.25
2019-05-02T21:09:17.611Z,17.05
2019-05-02T21:12:02.023Z,7.95
2019-05-02T21:14:31.661Z,19.87
2019-05-02T21:17:02.144Z,16.82
2019-05-02T21:19:32.385Z,28.65
2019-05-02T21:22:06.421Z,10.03
2019-05-02T21:24:35.912Z,8.18
2019-05-02T21:27:05.588Z,14.53
2019-05-02T21:29:34.940Z,14.63
2019-05-02T21:32:04.307Z,30.70
2019-05-02T21:34:33.656Z,15.18
2019-05-02T21:37:02.919Z,16.57
2019-05-02T21:39:32.232Z,10.20
2019-05-02T21:42:02.315Z,14.47
2019-05-02T21:44:31.914Z,22.95
2019-05-02T21:47:02.862Z,15.50
2019-05-02T21:49:56.212Z,15.48
2019-05-02T21:52:32.664Z,13.40
2019-05-02T21:55:14.959Z,14.18
2019-05-02T21:57:44.364Z,23.27
2019-05-02T22:00:22.165Z,10.32
2019-05-02T22:02:52.297Z,18.82
2019-05-02T22:05:22.228Z,9.90
2019-05-02T22:07:52.288Z,8.85
2019-05-02T22:10:22.713Z,10.38
2019-05-02T22:12:52.221Z,8.73
2019-05-02T22:15:21.964Z,7.25
2019-05-02T22:17:52.265Z,10.03
2019-05-02T22:20:22.961Z,16.40
2019-05-02T22:22:52.542Z,16.30
2019-05-02T22:25:22.214Z,13.50
2019-05-02T22:27:53.923Z,12.93
2019-05-02T22:30:22.673Z,8.78
2019-05-02T22:32:54.220Z,14.87
2019-05-02T22:35:23.047Z,7.60
2019-05-02T22:37:53.991Z,35.23
2019-05-02T22:40:23.376Z,14.98
2019-05-02T22:42:52.720Z,13.22
2019-05-02T22:45:22.070Z,18.85
2019-05-02T22:47:52.075Z,18.57
2019-05-02T22:50:22.037Z,5.42
2019-05-02T22:52:52.215Z,21.93
2019-05-02T22:55:22.588Z,10.63
2019-05-02T22:57:51.986Z,12.15
2019-05-02T23:00:21.712Z,10.90
2019-05-02T23:02:52.482Z,12.78
2019-05-02T23:05:22.018Z,8.45
2019-05-02T23:07:52.700Z,9.20
2019-05-02T23:10:22.448Z,7.80
2019-05-02T23:12:51.785Z,14.47
2019-05-02T23:15:21.682Z,10.15
2019-05-02T23:17:52.291Z,6.47
2019-05-02T23:20:24.236Z,8.38
2019-05-02T23:22:52.670Z,15.00
2019-05-02T23:25:32.078Z,8.65
2019-05-02T23:28:05.197Z,6.37
2019-05-02T23:30:34.577Z,8.05
2019-05-02T23:33:03.867Z,10.15
2019-05-02T23:35:34.307Z,23.07
2019-05-02T23:38:03.828Z,15.60
2019-05-02T23:40:33.079Z,9.28
2019-05-02T23:43:02.425Z,11.65
2019-05-02T23:45:34.062Z,7.90
2019-05-02T23:48:03.800Z,9.53
2019-05-02T23:50:33.076Z,16.65
2019-05-02T23:53:02.436Z,8.60
2019-05-02T23:55:32.196Z,7.90
2019-05-02T23:58:02.935Z,8.00
